sensor_id;sensor_type;location;lat;lon;timestamp;P1;durP1;ratioP1;P2;durP2;ratioP2
21513;SDS011;10918;48.102;11.636;2022-09-02T00:02:22;2.40;;;2.20;;
21513;SDS011;10918;48.102;11.636;2022-09-02T00:04:48;3.88;;;2.78;;
21513;SDS011;10918;48.102;11.636;2022-09-02T00:07:14;3.13;;;2.17;;
21513;SDS011;10918;48.102;11.636;2022-09-02T00:09:40;3.22;;;2.53;;
21513;SDS011;10918;48.102;11.636;2022-09-02T00:12:07;3.00;;;2.67;;
21513;SDS011;10918;48.102;11.636;2022-09-02T00:14:35;3.35;;;2.50;;
21513;SDS011;10918;48.102;11.636;2022-09-02T00:17:02;2.65;;;2.15;;
21513;SDS011;10918;48.102;11.636;2022-09-02T00:19:29;3.72;;;2.67;;
21513;SDS011;10918;48.102;11.636;2022-09-02T00:21:57;3.75;;;2.53;;
21513;SDS011;10918;48.102;11.636;2022-09-02T00:24:24;2.72;;;2.25;;
21513;SDS011;10918;48.102;11.636;2022-09-02T00:26:50;3.50;;;2.67;;
21513;SDS011;10918;48.102;11.636;2022-09-02T00:29:16;3.00;;;2.47;;
21513;SDS011;10918;48.102;11.636;2022-09-02T00:31:42;4.60;;;2.67;;
21513;SDS011;10918;48.102;11.636;2022-09-02T00:34:09;4.03;;;3.28;;
21513;SDS011;10918;48.102;11.636;2022-09-02T00:36:35;2.60;;;2.40;;
21513;SDS011;10918;48.102;11.636;2022-09-02T00:39:02;5.13;;;2.63;;
21513;SDS011;10918;48.102;11.636;2022-09-02T00:41:29;2.60;;;2.40;;
21513;SDS011;10918;48.102;11.636;2022-09-02T00:43:57;3.35;;;2.58;;
21513;SDS011;10918;48.102;11.636;2022-09-02T00:46:24;4.43;;;3.00;;
21513;SDS011;10918;48.102;11.636;2022-09-02T00:48:52;3.10;;;2.30;;
21513;SDS011;10918;48.102;11.636;2022-09-02T00:51:20;3.00;;;2.40;;
21513;SDS011;10918;48.102;11.636;2022-09-02T00:53:46;3.70;;;2.70;;
21513;SDS011;10918;48.102;11.636;2022-09-02T00:56:15;3.08;;;2.78;;
21513;SDS011;10918;48.102;11.636;2022-09-02T00:58:42;3.13;;;2.72;;
21513;SDS011;10918;48.102;11.636;2022-09-02T01:01:08;2.80;;;2.55;;
21513;SDS011;10918;48.102;11.636;2022-09-02T01:03:35;4.13;;;2.75;;
21513;SDS011;10918;48.102;11.636;2022-09-02T01:06:02;4.80;;;2.47;;
21513;SDS011;10918;48.102;11.636;2022-09-02T01:08:31;2.63;;;2.42;;
21513;SDS011;10918;48.102;11.636;2022-09-02T01:10:59;3.95;;;2.63;;
21513;SDS011;10918;48.102;11.636;2022-09-02T01:13:26;3.17;;;2.60;;
21513;SDS011;10918;48.102;11.636;2022-09-02T01:16:37;4.18;;;2.42;;
21513;SDS011;10918;48.102;11.636;2022-09-02T01:18:44;2.88;;;2.53;;
21513;SDS011;10918;48.102;11.636;2022-09-02T01:21:11;3.55;;;2.55;;
21513;SDS011;10918;48.102;11.636;2022-09-02T01:23:38;2.58;;;2.38;;
21513;SDS011;10918;48.102;11.636;2022-09-02T01:26:04;3.40;;;2.72;;
21513;SDS011;10918;48.102;11.636;2022-09-02T01:28:31;4.07;;;3.10;;
21513;SDS011;10918;48.102;11.636;2022-09-02T01:30:58;3.58;;;2.85;;
21513;SDS011;10918;48.102;11.636;2022-09-02T01:33:24;3.83;;;2.70;;
21513;SDS011;10918;48.102;11.636;2022-09-02T01:35:50;3.80;;;2.97;;
21513;SDS011;10918;48.102;11.636;2022-09-02T01:38:17;5.13;;;3.08;;
21513;SDS011;10918;48.102;11.636;2022-09-02T01:40:43;2.88;;;2.58;;
21513;SDS011;10918;48.102;11.636;2022-09-02T01:43:17;4.38;;;2.88;;
21513;SDS011;10918;48.102;11.636;2022-09-02T01:45:44;3.65;;;2.83;;
21513;SDS011;10918;48.102;11.636;2022-09-02T01:48:11;4.78;;;2.92;;
21513;SDS011;10918;48.102;11.636;2022-09-02T01:50:40;3.20;;;2.90;;
21513;SDS011;10918;48.102;11.636;2022-09-02T01:53:06;5.75;;;3.00;;
21513;SDS011;10918;48.102;11.636;2022-09-02T01:55:33;3.25;;;2.85;;
21513;SDS011;10918;48.102;11.636;2022-09-02T01:57:59;3.92;;;3.30;;
21513;SDS011;10918;48.102;11.636;2022-09-02T02:00:26;4.03;;;2.95;;
21513;SDS011;10918;48.102;11.636;2022-09-02T02:02:52;3.50;;;3.00;;
21513;SDS011;10918;48.102;11.636;2022-09-02T02:05:18;3.33;;;2.97;;
21513;SDS011;10918;48.102;11.636;2022-09-02T02:07:45;4.75;;;3.28;;
21513;SDS011;10918;48.102;11.636;2022-09-02T02:10:12;3.08;;;2.88;;
21513;SDS011;10918;48.102;11.636;2022-09-02T02:12:39;5.32;;;3.00;;
21513;SDS011;10918;48.102;11.636;2022-09-02T02:15:06;4.45;;;3.25;;
21513;SDS011;10918;48.102;11.636;2022-09-02T02:17:33;5.57;;;2.75;;
21513;SDS011;10918;48.102;11.636;2022-09-02T02:19:59;3.35;;;3.05;;
21513;SDS011;10918;48.102;11.636;2022-09-02T02:22:25;4.90;;;3.13;;
21513;SDS011;10918;48.102;11.636;2022-09-02T02:24:52;4.40;;;3.00;;
21513;SDS011;10918;48.102;11.636;2022-09-02T02:27:19;3.55;;;3.15;;
21513;SDS011;10918;48.102;11.636;2022-09-02T02:29:45;6.05;;;3.20;;
21513;SDS011;10918;48.102;11.636;2022-09-02T02:32:11;4.32;;;3.25;;
21513;SDS011;10918;48.102;11.636;2022-09-02T02:34:38;3.70;;;3.33;;
21513;SDS011;10918;48.102;11.636;2022-09-02T02:37:04;3.75;;;3.35;;
21513;SDS011;10918;48.102;11.636;2022-09-02T02:39:30;3.60;;;3.30;;
21513;SDS011;10918;48.102;11.636;2022-09-02T02:41:56;4.95;;;3.40;;
21513;SDS011;10918;48.102;11.636;2022-09-02T02:44:22;4.80;;;3.05;;
21513;SDS011;10918;48.102;11.636;2022-09-02T02:46:49;4.13;;;3.00;;
21513;SDS011;10918;48.102;11.636;2022-09-02T02:49:15;4.18;;;3.10;;
21513;SDS011;10918;48.102;11.636;2022-09-02T02:51:41;3.80;;;3.20;;
21513;SDS011;10918;48.102;11.636;2022-09-02T02:54:07;3.35;;;3.05;;
21513;SDS011;10918;48.102;11.636;2022-09-02T02:56:35;3.25;;;2.92;;
21513;SDS011;10918;48.102;11.636;2022-09-02T02:59:01;3.53;;;3.22;;
21513;SDS011;10918;48.102;11.636;2022-09-02T03:01:28;4.82;;;3.55;;
21513;SDS011;10918;48.102;11.636;2022-09-02T03:03:55;5.32;;;3.40;;
21513;SDS011;10918;48.102;11.636;2022-09-02T03:06:21;4.65;;;4.00;;
21513;SDS011;10918;48.102;11.636;2022-09-02T03:08:47;3.65;;;3.30;;
21513;SDS011;10918;48.102;11.636;2022-09-02T03:11:14;3.90;;;3.55;;
21513;SDS011;10918;48.102;11.636;2022-09-02T03:13:42;5.38;;;3.33;;
21513;SDS011;10918;48.102;11.636;2022-09-02T03:16:08;3.65;;;3.35;;
21513;SDS011;10918;48.102;11.636;2022-09-02T03:18:34;4.68;;;3.63;;
21513;SDS011;10918;48.102;11.636;2022-09-02T03:21:00;5.22;;;4.00;;
21513;SDS011;10918;48.102;11.636;2022-09-02T03:23:26;4.75;;;3.80;;
21513;SDS011;10918;48.102;11.636;2022-09-02T03:25:52;4.05;;;3.65;;
21513;SDS011;10918;48.102;11.636;2022-09-02T03:28:18;5.15;;;4.00;;
21513;SDS011;10918;48.102;11.636;2022-09-02T03:30:44;4.60;;;3.90;;
21513;SDS011;10918;48.102;11.636;2022-09-02T03:33:11;4.93;;;3.55;;
21513;SDS011;10918;48.102;11.636;2022-09-02T03:35:38;4.38;;;3.88;;
21513;SDS011;10918;48.102;11.636;2022-09-02T03:38:04;5.40;;;3.45;;
21513;SDS011;10918;48.102;11.636;2022-09-02T03:40:30;4.45;;;3.88;;
21513;SDS011;10918;48.102;11.636;2022-09-02T03:42:56;3.90;;;3.50;;
21513;SDS011;10918;48.102;11.636;2022-09-02T03:45:23;4.40;;;3.38;;
21513;SDS011;10918;48.102;11.636;2022-09-02T03:47:49;4.93;;;4.00;;
21513;SDS011;10918;48.102;11.636;2022-09-02T03:50:18;4.35;;;3.88;;
21513;SDS011;10918;48.102;11.636;2022-09-02T03:52:44;4.07;;;3.60;;
21513;SDS011;10918;48.102;11.636;2022-09-02T03:55:11;3.90;;;3.53;;
21513;SDS011;10918;48.102;11.636;2022-09-02T03:57:37;4.30;;;3.90;;
21513;SDS011;10918;48.102;11.636;2022-09-02T04:00:04;4.60;;;3.70;;
21513;SDS011;10918;48.102;11.636;2022-09-02T04:02:32;4.40;;;3.85;;
21513;SDS011;10918;48.102;11.636;2022-09-02T04:04:58;4.75;;;3.55;;
21513;SDS011;10918;48.102;11.636;2022-09-02T04:07:24;4.78;;;4.00;;
21513;SDS011;10918;48.102;11.636;2022-09-02T04:09:50;5.15;;;3.78;;
21513;SDS011;10918;48.102;11.636;2022-09-02T04:12:22;3.80;;;3.50;;
21513;SDS011;10918;48.102;11.636;2022-09-02T04:14:48;5.70;;;4.10;;
21513;SDS011;10918;48.102;11.636;2022-09-02T04:23:21;4.47;;;4.07;;
21513;SDS011;10918;48.102;11.636;2022-09-02T04:25:48;5.60;;;3.92;;
21513;SDS011;10918;48.102;11.636;2022-09-02T04:28:14;4.72;;;4.25;;
21513;SDS011;10918;48.102;11.636;2022-09-02T04:30:40;5.35;;;4.43;;
21513;SDS011;10918;48.102;11.636;2022-09-02T04:33:06;6.57;;;4.55;;
21513;SDS011;10918;48.102;11.636;2022-09-02T04:35:32;4.65;;;4.25;;
21513;SDS011;10918;48.102;11.636;2022-09-02T04:38:00;5.47;;;4.13;;
21513;SDS011;10918;48.102;11.636;2022-09-02T04:40:26;5.38;;;4.30;;
21513;SDS011;10918;48.102;11.636;2022-09-02T04:42:52;6.07;;;3.97;;
21513;SDS011;10918;48.102;11.636;2022-09-02T04:45:19;5.03;;;4.40;;
21513;SDS011;10918;48.102;11.636;2022-09-02T04:47:45;4.90;;;4.50;;
21513;SDS011;10918;48.102;11.636;2022-09-02T04:50:11;5.63;;;4.80;;
21513;SDS011;10918;48.102;11.636;2022-09-02T04:52:37;5.82;;;4.63;;
21513;SDS011;10918;48.102;11.636;2022-09-02T04:55:03;6.00;;;4.72;;
21513;SDS011;10918;48.102;11.636;2022-09-02T04:57:31;5.60;;;4.57;;
21513;SDS011;10918;48.102;11.636;2022-09-02T04:59:57;6.43;;;4.97;;
21513;SDS011;10918;48.102;11.636;2022-09-02T05:02:23;5.25;;;4.75;;
21513;SDS011;10918;48.102;11.636;2022-09-02T05:04:49;6.03;;;4.85;;
21513;SDS011;10918;48.102;11.636;2022-09-02T05:07:16;6.68;;;5.13;;
21513;SDS011;10918;48.102;11.636;2022-09-02T05:09:42;6.43;;;5.57;;
21513;SDS011;10918;48.102;11.636;2022-09-02T05:12:08;6.93;;;5.20;;
21513;SDS011;10918;48.102;11.636;2022-09-02T05:14:35;5.90;;;4.75;;
21513;SDS011;10918;48.102;11.636;2022-09-02T05:17:01;6.05;;;4.95;;
21513;SDS011;10918;48.102;11.636;2022-09-02T05:19:28;9.18;;;5.28;;
21513;SDS011;10918;48.102;11.636;2022-09-02T05:21:55;5.40;;;4.88;;
21513;SDS011;10918;48.102;11.636;2022-09-02T05:24:23;6.93;;;4.97;;
21513;SDS011;10918;48.102;11.636;2022-09-02T05:26:49;6.57;;;5.20;;
21513;SDS011;10918;48.102;11.636;2022-09-02T05:29:16;7.35;;;5.35;;
21513;SDS011;10918;48.102;11.636;2022-09-02T05:31:47;5.80;;;5.30;;
21513;SDS011;10918;48.102;11.636;2022-09-02T05:34:14;6.82;;;4.95;;
21513;SDS011;10918;48.102;11.636;2022-09-02T05:36:40;5.90;;;5.38;;
21513;SDS011;10918;48.102;11.636;2022-09-02T05:39:06;8.20;;;4.95;;
21513;SDS011;10918;48.102;11.636;2022-09-02T05:41:33;6.32;;;5.40;;
21513;SDS011;10918;48.102;11.636;2022-09-02T05:44:00;6.40;;;5.25;;
21513;SDS011;10918;48.102;11.636;2022-09-02T05:46:27;5.80;;;5.07;;
21513;SDS011;10918;48.102;11.636;2022-09-02T05:48:54;12.27;;;5.85;;
21513;SDS011;10918;48.102;11.636;2022-09-02T05:51:43;7.50;;;5.80;;
21513;SDS011;10918;48.102;11.636;2022-09-02T05:54:11;10.10;;;5.93;;
21513;SDS011;10918;48.102;11.636;2022-09-02T05:56:38;6.60;;;5.25;;
21513;SDS011;10918;48.102;11.636;2022-09-02T05:59:05;7.22;;;5.63;;
21513;SDS011;10918;48.102;11.636;2022-09-02T06:01:32;7.03;;;5.57;;
21513;SDS011;10918;48.102;11.636;2022-09-02T06:03:58;9.15;;;5.15;;
21513;SDS011;10918;48.102;11.636;2022-09-02T06:06:26;7.22;;;5.57;;
21513;SDS011;10918;48.102;11.636;2022-09-02T06:08:52;7.05;;;5.53;;
21513;SDS011;10918;48.102;11.636;2022-09-02T06:11:18;9.30;;;5.05;;
21513;SDS011;10918;48.102;11.636;2022-09-02T06:13:44;6.03;;;5.40;;
21513;SDS011;10918;48.102;11.636;2022-09-02T06:16:15;6.35;;;4.80;;
21513;SDS011;10918;48.102;11.636;2022-09-02T06:18:43;6.57;;;5.47;;
21513;SDS011;10918;48.102;11.636;2022-09-02T06:21:09;7.05;;;4.65;;
21513;SDS011;10918;48.102;11.636;2022-09-02T06:23:36;5.40;;;4.82;;
21513;SDS011;10918;48.102;11.636;2022-09-02T06:26:03;5.28;;;4.60;;
21513;SDS011;10918;48.102;11.636;2022-09-02T06:28:29;4.97;;;4.47;;
21513;SDS011;10918;48.102;11.636;2022-09-02T06:30:56;5.18;;;4.68;;
21513;SDS011;10918;48.102;11.636;2022-09-02T06:33:22;4.82;;;4.40;;
21513;SDS011;10918;48.102;11.636;2022-09-02T06:35:49;4.80;;;4.40;;
21513;SDS011;10918;48.102;11.636;2022-09-02T06:38:15;5.13;;;4.63;;
21513;SDS011;10918;48.102;11.636;2022-09-02T06:40:48;5.38;;;4.88;;
21513;SDS011;10918;48.102;11.636;2022-09-02T06:43:14;6.22;;;5.00;;
21513;SDS011;10918;48.102;11.636;2022-09-02T06:45:40;4.80;;;4.15;;
21513;SDS011;10918;48.102;11.636;2022-09-02T06:48:07;6.90;;;4.40;;
21513;SDS011;10918;48.102;11.636;2022-09-02T06:50:36;5.45;;;4.18;;
21513;SDS011;10918;48.102;11.636;2022-09-02T06:53:02;7.50;;;4.53;;
21513;SDS011;10918;48.102;11.636;2022-09-02T06:55:31;4.80;;;3.90;;
21513;SDS011;10918;48.102;11.636;2022-09-02T06:57:58;5.35;;;4.38;;
21513;SDS011;10918;48.102;11.636;2022-09-02T07:00:24;4.80;;;4.28;;
21513;SDS011;10918;48.102;11.636;2022-09-02T07:02:50;6.57;;;3.78;;
21513;SDS011;10918;48.102;11.636;2022-09-02T07:05:36;3.70;;;3.33;;
21513;SDS011;10918;48.102;11.636;2022-09-02T07:08:02;3.67;;;3.38;;
21513;SDS011;10918;48.102;11.636;2022-09-02T07:10:28;4.22;;;3.45;;
21513;SDS011;10918;48.102;11.636;2022-09-02T07:12:54;4.05;;;3.33;;
21513;SDS011;10918;48.102;11.636;2022-09-02T07:15:20;5.13;;;3.20;;
21513;SDS011;10918;48.102;11.636;2022-09-02T07:17:48;7.95;;;3.38;;
21513;SDS011;10918;48.102;11.636;2022-09-02T07:20:14;3.40;;;3.03;;
21513;SDS011;10918;48.102;11.636;2022-09-02T07:22:40;3.50;;;3.03;;
21513;SDS011;10918;48.102;11.636;2022-09-02T07:25:06;3.28;;;2.97;;
21513;SDS011;10918;48.102;11.636;2022-09-02T07:27:33;3.08;;;2.83;;
21513;SDS011;10918;48.102;11.636;2022-09-02T07:29:59;2.80;;;2.60;;
21513;SDS011;10918;48.102;11.636;2022-09-02T07:32:25;4.40;;;3.00;;
21513;SDS011;10918;48.102;11.636;2022-09-02T07:34:51;2.65;;;2.45;;
21513;SDS011;10918;48.102;11.636;2022-09-02T07:37:17;4.82;;;3.00;;
21513;SDS011;10918;48.102;11.636;2022-09-02T07:39:43;3.75;;;2.50;;
21513;SDS011;10918;48.102;11.636;2022-09-02T07:42:09;6.10;;;2.55;;
21513;SDS011;10918;48.102;11.636;2022-09-02T07:44:36;4.35;;;2.17;;
21513;SDS011;10918;48.102;11.636;2022-09-02T07:47:02;3.22;;;2.00;;
21513;SDS011;10918;48.102;11.636;2022-09-02T07:49:29;3.03;;;2.40;;
21513;SDS011;10918;48.102;11.636;2022-09-02T07:51:55;4.72;;;2.40;;
21513;SDS011;10918;48.102;11.636;2022-09-02T07:54:22;3.55;;;2.33;;
21513;SDS011;10918;48.102;11.636;2022-09-02T07:56:48;2.78;;;2.22;;
21513;SDS011;10918;48.102;11.636;2022-09-02T07:59:15;2.50;;;2.30;;
21513;SDS011;10918;48.102;11.636;2022-09-02T08:01:42;2.33;;;2.03;;
21513;SDS011;10918;48.102;11.636;2022-09-02T08:04:08;2.25;;;1.65;;
21513;SDS011;10918;48.102;11.636;2022-09-02T08:06:34;4.45;;;2.25;;
21513;SDS011;10918;48.102;11.636;2022-09-02T08:09:05;3.80;;;1.90;;
21513;SDS011;10918;48.102;11.636;2022-09-02T08:11:35;3.80;;;1.80;;
21513;SDS011;10918;48.102;11.636;2022-09-02T08:14:02;2.28;;;1.90;;
21513;SDS011;10918;48.102;11.636;2022-09-02T08:16:28;3.25;;;1.90;;
21513;SDS011;10918;48.102;11.636;2022-09-02T08:18:55;2.15;;;1.48;;
21513;SDS011;10918;48.102;11.636;2022-09-02T08:21:22;3.50;;;1.63;;
21513;SDS011;10918;48.102;11.636;2022-09-02T08:23:49;2.97;;;1.70;;
21513;SDS011;10918;48.102;11.636;2022-09-02T08:26:16;1.90;;;1.52;;
21513;SDS011;10918;48.102;11.636;2022-09-02T08:28:42;2.80;;;1.35;;
21513;SDS011;10918;48.102;11.636;2022-09-02T08:31:08;1.60;;;1.50;;
21513;SDS011;10918;48.102;11.636;2022-09-02T08:33:35;3.22;;;1.70;;
21513;SDS011;10918;48.102;11.636;2022-09-02T08:36:04;5.32;;;1.85;;
21513;SDS011;10918;48.102;11.636;2022-09-02T08:38:33;1.98;;;1.25;;
21513;SDS011;10918;48.102;11.636;2022-09-02T08:40:59;2.30;;;1.27;;
21513;SDS011;10918;48.102;11.636;2022-09-02T08:43:35;2.35;;;1.50;;
21513;SDS011;10918;48.102;11.636;2022-09-02T08:46:03;2.50;;;1.42;;
21513;SDS011;10918;48.102;11.636;2022-09-02T08:48:34;2.50;;;1.20;;
21513;SDS011;10918;48.102;11.636;2022-09-02T08:51:04;1.50;;;1.40;;
21513;SDS011;10918;48.102;11.636;2022-09-02T08:56:01;2.08;;;1.40;;
21513;SDS011;10918;48.102;11.636;2022-09-02T08:58:32;2.58;;;1.50;;
21513;SDS011;10918;48.102;11.636;2022-09-02T09:01:11;3.40;;;1.30;;
21513;SDS011;10918;48.102;11.636;2022-09-02T09:03:56;1.90;;;1.30;;
21513;SDS011;10918;48.102;11.636;2022-09-02T09:09:09;2.63;;;1.55;;
21513;SDS011;10918;48.102;11.636;2022-09-02T09:11:47;3.85;;;1.52;;
21513;SDS011;10918;48.102;11.636;2022-09-02T09:16:58;1.83;;;1.25;;
21513;SDS011;10918;48.102;11.636;2022-09-02T09:22:00;2.90;;;1.38;;
21513;SDS011;10918;48.102;11.636;2022-09-02T09:27:00;4.03;;;1.25;;
21513;SDS011;10918;48.102;11.636;2022-09-02T09:29:30;3.17;;;1.60;;
21513;SDS011;10918;48.102;11.636;2022-09-02T09:31:57;1.52;;;1.35;;
21513;SDS011;10918;48.102;11.636;2022-09-02T09:34:44;2.25;;;1.30;;
21513;SDS011;10918;48.102;11.636;2022-09-02T09:37:10;2.20;;;1.42;;
21513;SDS011;10918;48.102;11.636;2022-09-02T09:39:37;1.75;;;1.30;;
21513;SDS011;10918;48.102;11.636;2022-09-02T09:42:11;1.38;;;1.27;;
21513;SDS011;10918;48.102;11.636;2022-09-02T09:44:45;2.47;;;1.75;;
21513;SDS011;10918;48.102;11.636;2022-09-02T09:47:21;2.08;;;1.40;;
21513;SDS011;10918;48.102;11.636;2022-09-02T09:49:50;2.45;;;1.17;;
21513;SDS011;10918;48.102;11.636;2022-09-02T09:52:27;3.40;;;1.40;;
21513;SDS011;10918;48.102;11.636;2022-09-02T09:57:31;1.35;;;1.25;;
21513;SDS011;10918;48.102;11.636;2022-09-02T09:59:57;1.40;;;1.30;;
21513;SDS011;10918;48.102;11.636;2022-09-02T10:02:25;2.03;;;1.15;;
21513;SDS011;10918;48.102;11.636;2022-09-02T10:04:52;1.92;;;1.20;;
21513;SDS011;10918;48.102;11.636;2022-09-02T10:07:38;2.38;;;1.17;;
21513;SDS011;10918;48.102;11.636;2022-09-02T10:10:15;1.17;;;1.08;;
21513;SDS011;10918;48.102;11.636;2022-09-02T10:12:42;1.20;;;1.10;;
21513;SDS011;10918;48.102;11.636;2022-09-02T10:15:08;1.50;;;1.40;;
21513;SDS011;10918;48.102;11.636;2022-09-02T10:25:28;0.95;;;0.93;;
21513;SDS011;10918;48.102;11.636;2022-09-02T10:36:04;2.88;;;1.02;;
21513;SDS011;10918;48.102;11.636;2022-09-02T10:38:41;2.35;;;1.10;;
21513;SDS011;10918;48.102;11.636;2022-09-02T10:46:04;2.03;;;1.30;;
21513;SDS011;10918;48.102;11.636;2022-09-02T10:48:35;1.15;;;1.00;;
21513;SDS011;10918;48.102;11.636;2022-09-02T10:51:13;1.55;;;1.02;;
21513;SDS011;10918;48.102;11.636;2022-09-02T10:56:20;2.00;;;1.20;;
21513;SDS011;10918;48.102;11.636;2022-09-02T10:58:54;1.10;;;1.00;;
21513;SDS011;10918;48.102;11.636;2022-09-02T11:01:29;2.47;;;1.20;;
21513;SDS011;10918;48.102;11.636;2022-09-02T11:06:24;0.93;;;0.85;;
21513;SDS011;10918;48.102;11.636;2022-09-02T11:08:53;1.17;;;1.08;;
21513;SDS011;10918;48.102;11.636;2022-09-02T11:14:16;1.85;;;1.00;;
21513;SDS011;10918;48.102;11.636;2022-09-02T11:21:50;0.93;;;0.80;;
21513;SDS011;10918;48.102;11.636;2022-09-02T11:26:46;2.33;;;0.80;;
21513;SDS011;10918;48.102;11.636;2022-09-02T11:29:16;1.63;;;1.00;;
21513;SDS011;10918;48.102;11.636;2022-09-02T11:36:39;3.20;;;1.20;;
21513;SDS011;10918;48.102;11.636;2022-09-02T11:44:27;1.90;;;0.90;;
21513;SDS011;10918;48.102;11.636;2022-09-02T11:54:44;1.08;;;0.90;;
21513;SDS011;10918;48.102;11.636;2022-09-02T11:57:19;1.30;;;0.82;;
21513;SDS011;10918;48.102;11.636;2022-09-02T12:08:00;3.45;;;1.00;;
21513;SDS011;10918;48.102;11.636;2022-09-02T12:13:08;2.20;;;0.90;;
21513;SDS011;10918;48.102;11.636;2022-09-02T12:15:34;2.05;;;1.00;;
21513;SDS011;10918;48.102;11.636;2022-09-02T12:24:01;2.22;;;1.40;;
21513;SDS011;10918;48.102;11.636;2022-09-02T12:26:04;1.10;;;0.93;;
21513;SDS011;10918;48.102;11.636;2022-09-02T12:28:31;2.60;;;1.30;;
21513;SDS011;10918;48.102;11.636;2022-09-02T12:33:39;1.67;;;0.70;;
21513;SDS011;10918;48.102;11.636;2022-09-02T12:36:08;1.20;;;1.00;;
21513;SDS011;10918;48.102;11.636;2022-09-02T12:39:19;2.38;;;1.00;;
21513;SDS011;10918;48.102;11.636;2022-09-02T12:41:42;1.77;;;1.10;;
21513;SDS011;10918;48.102;11.636;2022-09-02T12:44:31;2.58;;;0.80;;
21513;SDS011;10918;48.102;11.636;2022-09-02T12:46:57;1.55;;;1.13;;
21513;SDS011;10918;48.102;11.636;2022-09-02T12:49:40;1.95;;;1.10;;
21513;SDS011;10918;48.102;11.636;2022-09-02T12:52:09;4.05;;;3.30;;
21513;SDS011;10918;48.102;11.636;2022-09-02T12:54:45;1.33;;;1.10;;
21513;SDS011;10918;48.102;11.636;2022-09-02T12:57:13;1.90;;;1.02;;
21513;SDS011;10918;48.102;11.636;2022-09-02T12:59:40;1.70;;;1.00;;
21513;SDS011;10918;48.102;11.636;2022-09-02T13:09:40;2.17;;;1.00;;
21513;SDS011;10918;48.102;11.636;2022-09-02T13:33:05;1.70;;;0.80;;
21513;SDS011;10918;48.102;11.636;2022-09-02T13:35:32;1.23;;;0.93;;
21513;SDS011;10918;48.102;11.636;2022-09-02T13:38:00;1.10;;;0.98;;
21513;SDS011;10918;48.102;11.636;2022-09-02T13:40:30;3.40;;;1.00;;
21513;SDS011;10918;48.102;11.636;2022-09-02T13:43:08;1.75;;;0.90;;
21513;SDS011;10918;48.102;11.636;2022-09-02T13:45:41;1.10;;;0.93;;
21513;SDS011;10918;48.102;11.636;2022-09-02T13:48:08;1.70;;;0.80;;
21513;SDS011;10918;48.102;11.636;2022-09-02T13:50:35;2.42;;;0.90;;
21513;SDS011;10918;48.102;11.636;2022-09-02T13:53:04;2.83;;;0.93;;
21513;SDS011;10918;48.102;11.636;2022-09-02T13:55:31;1.10;;;1.00;;
21513;SDS011;10918;48.102;11.636;2022-09-02T13:58:02;1.67;;;0.93;;
21513;SDS011;10918;48.102;11.636;2022-09-02T14:00:39;1.70;;;0.90;;
21513;SDS011;10918;48.102;11.636;2022-09-02T14:05:32;1.58;;;0.95;;
21513;SDS011;10918;48.102;11.636;2022-09-02T14:08:00;1.73;;;0.93;;
21513;SDS011;10918;48.102;11.636;2022-09-02T14:10:27;2.50;;;1.08;;
21513;SDS011;10918;48.102;11.636;2022-09-02T14:12:55;1.08;;;0.90;;
21513;SDS011;10918;48.102;11.636;2022-09-02T14:15:23;2.85;;;0.82;;
21513;SDS011;10918;48.102;11.636;2022-09-02T14:18:12;0.98;;;0.80;;
21513;SDS011;10918;48.102;11.636;2022-09-02T14:20:35;1.25;;;0.85;;
21513;SDS011;10918;48.102;11.636;2022-09-02T14:23:02;1.90;;;1.00;;
21513;SDS011;10918;48.102;11.636;2022-09-02T14:25:31;1.35;;;1.15;;
21513;SDS011;10918;48.102;11.636;2022-09-02T14:27:59;1.63;;;0.80;;
21513;SDS011;10918;48.102;11.636;2022-09-02T14:30:33;1.63;;;0.75;;
21513;SDS011;10918;48.102;11.636;2022-09-02T14:35:58;2.55;;;0.80;;
21513;SDS011;10918;48.102;11.636;2022-09-02T14:38:25;1.15;;;0.95;;
21513;SDS011;10918;48.102;11.636;2022-09-02T14:41:01;4.57;;;2.10;;
21513;SDS011;10918;48.102;11.636;2022-09-02T14:43:28;1.85;;;1.27;;
21513;SDS011;10918;48.102;11.636;2022-09-02T14:46:03;3.42;;;0.90;;
21513;SDS011;10918;48.102;11.636;2022-09-02T14:48:35;1.10;;;1.00;;
21513;SDS011;10918;48.102;11.636;2022-09-02T14:51:03;0.60;;;0.60;;
21513;SDS011;10918;48.102;11.636;2022-09-02T14:53:29;2.47;;;0.90;;
21513;SDS011;10918;48.102;11.636;2022-09-02T14:55:56;2.85;;;0.90;;
21513;SDS011;10918;48.102;11.636;2022-09-02T14:58:23;4.60;;;1.17;;
21513;SDS011;10918;48.102;11.636;2022-09-02T15:00:50;1.52;;;1.00;;
21513;SDS011;10918;48.102;11.636;2022-09-02T15:03:18;1.45;;;0.90;;
21513;SDS011;10918;48.102;11.636;2022-09-02T15:05:44;2.70;;;1.00;;
21513;SDS011;10918;48.102;11.636;2022-09-02T15:08:10;0.80;;;0.77;;
21513;SDS011;10918;48.102;11.636;2022-09-02T15:10:37;1.98;;;1.20;;
21513;SDS011;10918;48.102;11.636;2022-09-02T15:13:08;2.88;;;1.00;;
21513;SDS011;10918;48.102;11.636;2022-09-02T15:15:36;1.30;;;1.08;;
21513;SDS011;10918;48.102;11.636;2022-09-02T15:18:02;0.85;;;0.77;;
21513;SDS011;10918;48.102;11.636;2022-09-02T15:20:29;1.63;;;1.10;;
21513;SDS011;10918;48.102;11.636;2022-09-02T15:22:55;1.63;;;1.00;;
21513;SDS011;10918;48.102;11.636;2022-09-02T15:25:21;1.52;;;0.90;;
21513;SDS011;10918;48.102;11.636;2022-09-02T15:27:47;1.02;;;0.88;;
21513;SDS011;10918;48.102;11.636;2022-09-02T15:30:13;2.13;;;0.90;;
21513;SDS011;10918;48.102;11.636;2022-09-02T15:32:39;1.05;;;0.95;;
21513;SDS011;10918;48.102;11.636;2022-09-02T15:35:06;1.25;;;0.98;;
21513;SDS011;10918;48.102;11.636;2022-09-02T15:37:32;2.45;;;0.93;;
21513;SDS011;10918;48.102;11.636;2022-09-02T15:40:02;4.40;;;1.20;;
21513;SDS011;10918;48.102;11.636;2022-09-02T15:42:30;1.45;;;1.13;;
21513;SDS011;10918;48.102;11.636;2022-09-02T15:44:57;0.90;;;0.90;;
21513;SDS011;10918;48.102;11.636;2022-09-02T15:47:26;2.90;;;0.80;;
21513;SDS011;10918;48.102;11.636;2022-09-02T15:49:54;1.88;;;0.95;;
21513;SDS011;10918;48.102;11.636;2022-09-02T15:52:21;1.55;;;1.00;;
21513;SDS011;10918;48.102;11.636;2022-09-02T15:54:47;1.63;;;0.95;;
21513;SDS011;10918;48.102;11.636;2022-09-02T15:57:13;1.55;;;1.00;;
21513;SDS011;10918;48.102;11.636;2022-09-02T15:59:39;1.35;;;1.25;;
21513;SDS011;10918;48.102;11.636;2022-09-02T16:02:06;1.10;;;1.00;;
21513;SDS011;10918;48.102;11.636;2022-09-02T16:04:32;2.05;;;1.00;;
21513;SDS011;10918;48.102;11.636;2022-09-02T16:06:58;1.15;;;0.93;;
21513;SDS011;10918;48.102;11.636;2022-09-02T16:09:25;1.88;;;0.90;;
21513;SDS011;10918;48.102;11.636;2022-09-02T16:11:51;2.92;;;1.25;;
21513;SDS011;10918;48.102;11.636;2022-09-02T16:14:18;1.30;;;1.00;;
21513;SDS011;10918;48.102;11.636;2022-09-02T16:16:44;1.13;;;1.02;;
21513;SDS011;10918;48.102;11.636;2022-09-02T16:19:10;1.33;;;0.90;;
21513;SDS011;10918;48.102;11.636;2022-09-02T16:21:37;1.35;;;1.25;;
21513;SDS011;10918;48.102;11.636;2022-09-02T16:24:05;1.02;;;0.80;;
21513;SDS011;10918;48.102;11.636;2022-09-02T16:26:32;1.48;;;0.82;;
21513;SDS011;10918;48.102;11.636;2022-09-02T16:29:02;4.00;;;1.35;;
21513;SDS011;10918;48.102;11.636;2022-09-02T16:31:29;2.08;;;1.20;;
21513;SDS011;10918;48.102;11.636;2022-09-02T16:33:57;2.30;;;1.08;;
21513;SDS011;10918;48.102;11.636;2022-09-02T16:36:24;2.85;;;1.02;;
21513;SDS011;10918;48.102;11.636;2022-09-02T16:38:50;2.22;;;1.17;;
21513;SDS011;10918;48.102;11.636;2022-09-02T16:41:26;1.10;;;1.00;;
21513;SDS011;10918;48.102;11.636;2022-09-02T16:43:56;1.48;;;0.93;;
21513;SDS011;10918;48.102;11.636;2022-09-02T16:46:23;3.08;;;1.00;;
21513;SDS011;10918;48.102;11.636;2022-09-02T16:48:49;4.18;;;1.15;;